createdAt,value
2023-04-19T00:02:13.454Z,6.80
2023-04-19T00:05:15.652Z,5.80
2023-04-19T00:08:17.352Z,6.97
2023-04-19T00:11:19.269Z,6.45
2023-04-19T00:14:20.857Z,6.50
2023-04-19T00:17:22.994Z,6.23
2023-04-19T00:20:24.688Z,5.68
2023-04-19T00:23:26.466Z,6.90
2023-04-19T00:26:28.121Z,5.95
2023-04-19T00:29:29.931Z,6.00
2023-04-19T00:32:31.687Z,5.90
2023-04-19T00:35:33.395Z,5.90
2023-04-19T00:38:34.993Z,5.78
2023-04-19T00:41:36.657Z,5.57
2023-04-19T00:44:38.284Z,6.47
2023-04-19T00:47:40.320Z,8.20
2023-04-19T00:50:44.793Z,7.15
2023-04-19T00:53:46.680Z,5.70
2023-04-19T00:56:48.281Z,6.22
2023-04-19T00:59:51.153Z,6.53
2023-04-19T01:02:53.791Z,6.80
2023-04-19T01:05:56.378Z,5.55
2023-04-19T01:08:58.221Z,5.95
2023-04-19T01:12:01.894Z,5.68
2023-04-19T01:15:03.961Z,6.28
2023-04-19T01:18:05.912Z,5.03
2023-04-19T01:21:09.123Z,5.97
2023-04-19T01:24:10.878Z,6.10
2023-04-19T01:27:14.132Z,5.97
2023-04-19T01:30:16.023Z,5.68
2023-04-19T01:33:17.650Z,5.93
2023-04-19T01:36:19.351Z,6.03
2023-04-19T01:39:21.622Z,6.15
2023-04-19T01:42:23.327Z,6.63
2023-04-19T01:45:25.023Z,6.25
2023-04-19T01:48:26.862Z,6.07
2023-04-19T01:51:28.504Z,6.50
2023-04-19T01:54:30.269Z,5.57
2023-04-19T01:57:31.936Z,5.28
2023-04-19T02:00:33.587Z,5.53
2023-04-19T02:03:35.476Z,6.93
2023-04-19T02:06:37.421Z,8.10
2023-04-19T02:09:39.294Z,5.88
2023-04-19T02:12:42.927Z,6.13
2023-04-19T02:15:44.577Z,5.80
2023-04-19T02:18:46.886Z,6.00
2023-04-19T02:21:48.560Z,7.38
2023-04-19T02:24:50.920Z,5.78
2023-04-19T02:27:52.579Z,6.55
2023-04-19T02:30:54.247Z,8.95
2023-04-19T02:33:55.840Z,5.87
2023-04-19T02:36:57.664Z,7.95
2023-04-19T02:39:59.347Z,9.80
2023-04-19T02:43:00.953Z,9.35
2023-04-19T02:46:03.198Z,8.27
2023-04-19T02:49:05.125Z,9.27
2023-04-19T02:52:06.905Z,8.55
2023-04-19T02:55:09.014Z,8.68
2023-04-19T02:58:11.598Z,7.07
2023-04-19T03:01:13.256Z,8.02
2023-04-19T03:04:15.042Z,7.33
2023-04-19T03:07:17.142Z,7.65
2023-04-19T03:10:19.267Z,8.23
2023-04-19T03:13:21.039Z,8.23
2023-04-19T03:16:22.834Z,8.43
2023-04-19T03:19:24.495Z,7.07
2023-04-19T03:22:26.143Z,7.13
2023-04-19T03:25:27.893Z,6.18
2023-04-19T03:28:29.479Z,8.68
2023-04-19T03:31:31.138Z,8.20
2023-04-19T03:34:32.888Z,6.60
2023-04-19T03:37:34.593Z,7.28
2023-04-19T03:40:37.884Z,6.60
2023-04-19T03:43:39.510Z,6.95
2023-04-19T03:46:41.208Z,7.82
2023-04-19T03:49:42.856Z,7.20
2023-04-19T03:52:44.441Z,7.05
2023-04-19T03:55:46.083Z,7.40
2023-04-19T03:58:47.744Z,6.85
2023-04-19T04:01:49.380Z,7.80
2023-04-19T04:04:55.401Z,5.97
2023-04-19T04:07:57.853Z,7.85
2023-04-19T04:10:59.445Z,7.03
2023-04-19T04:14:01.347Z,7.22
2023-04-19T04:17:02.955Z,6.97
2023-04-19T04:20:05.752Z,6.93
2023-04-19T04:23:07.581Z,6.35
2023-04-19T04:26:10.073Z,7.35
2023-04-19T04:29:11.810Z,6.75
2023-04-19T04:32:14.615Z,8.65
2023-04-19T04:35:16.262Z,6.83
2023-04-19T04:38:24.716Z,6.07
2023-04-19T04:41:26.991Z,7.72
2023-04-19T04:44:29.145Z,6.88
2023-04-19T04:47:32.444Z,7.43
2023-04-19T04:50:34.065Z,7.77
2023-04-19T04:53:35.789Z,8.00
2023-04-19T04:56:37.430Z,6.97
2023-04-19T04:59:39.083Z,8.30
2023-04-19T05:02:40.943Z,8.93
2023-04-19T05:05:44.977Z,9.67
2023-04-19T05:08:46.962Z,7.25
2023-04-19T05:11:48.624Z,7.72
2023-04-19T05:14:50.244Z,7.20
2023-04-19T05:17:51.960Z,9.38
2023-04-19T05:20:53.649Z,6.93
2023-04-19T05:23:55.282Z,8.18
2023-04-19T05:26:56.892Z,6.88
2023-04-19T05:29:58.564Z,7.90
2023-04-19T05:33:00.509Z,7.32
2023-04-19T05:36:02.286Z,7.47
2023-04-19T05:39:04.015Z,7.95
2023-04-19T05:42:06.050Z,8.40
2023-04-19T05:45:08.448Z,8.40
2023-04-19T05:48:10.084Z,8.10
2023-04-19T05:51:12.155Z,9.17
2023-04-19T05:54:14.851Z,8.35
2023-04-19T05:57:16.955Z,7.78
2023-04-19T06:00:19.142Z,7.40
2023-04-19T06:03:20.934Z,7.82
2023-04-19T06:06:23.949Z,8.60
2023-04-19T06:09:25.926Z,11.10
2023-04-19T06:12:27.756Z,7.00
2023-04-19T06:15:31.039Z,7.43
2023-04-19T06:18:32.721Z,7.13
2023-04-19T06:21:35.332Z,7.17
2023-04-19T06:24:36.997Z,8.10
2023-04-19T06:27:38.668Z,6.93
2023-04-19T06:30:40.558Z,7.00
2023-04-19T06:33:42.251Z,8.13
2023-04-19T06:36:44.001Z,7.53
2023-04-19T06:39:46.772Z,7.95
2023-04-19T06:42:48.432Z,9.10
2023-04-19T06:45:57.378Z,7.43
2023-04-19T06:48:59.104Z,6.47
2023-04-19T06:52:00.784Z,6.07
2023-04-19T06:55:02.589Z,6.85
2023-04-19T06:58:04.392Z,6.38
2023-04-19T07:01:07.341Z,7.30
2023-04-19T07:04:09.321Z,6.53
2023-04-19T07:07:11.074Z,6.27
2023-04-19T07:10:13.013Z,7.13
2023-04-19T07:13:14.675Z,4.93
2023-04-19T07:16:16.678Z,6.22
2023-04-19T07:19:20.531Z,6.20
2023-04-19T07:22:22.367Z,6.27
2023-04-19T07:25:24.138Z,6.28
2023-04-19T07:28:25.839Z,6.03
2023-04-19T07:31:28.346Z,7.13
2023-04-19T07:34:30.201Z,7.95
2023-04-19T07:37:32.018Z,6.97
2023-04-19T07:40:33.630Z,6.38
2023-04-19T07:43:35.913Z,9.70
2023-04-19T07:46:39.143Z,6.55
2023-04-19T07:49:40.742Z,5.80
2023-04-19T07:52:42.387Z,6.77
2023-04-19T07:55:44.601Z,6.60
2023-04-19T07:58:50.833Z,5.70
2023-04-19T08:02:00.313Z,6.53
2023-04-19T08:05:03.756Z,5.68
2023-04-19T08:08:05.791Z,5.93
2023-04-19T08:11:07.565Z,6.05
2023-04-19T08:14:15.158Z,8.35
2023-04-19T08:17:34.802Z,6.70
2023-04-19T08:20:45.072Z,8.27
2023-04-19T08:23:48.540Z,5.50
2023-04-19T08:26:54.243Z,6.35
2023-04-19T08:29:56.354Z,5.38
2023-04-19T08:32:58.067Z,5.18
2023-04-19T08:35:59.711Z,5.07
2023-04-19T08:39:06.552Z,5.53
2023-04-19T08:42:24.596Z,5.82
2023-04-19T08:45:34.803Z,6.30
2023-04-19T08:48:37.011Z,8.82
2023-04-19T08:51:40.109Z,6.93
2023-04-19T08:54:42.587Z,7.57
2023-04-19T08:57:44.543Z,7.47
2023-04-19T09:00:46.469Z,8.27
2023-04-19T09:04:02.693Z,6.80
2023-04-19T09:07:08.928Z,7.15
2023-04-19T09:10:16.484Z,7.30
2023-04-19T09:13:18.361Z,6.93
2023-04-19T09:16:26.531Z,7.00
2023-04-19T09:19:45.977Z,7.03
2023-04-19T09:23:04.860Z,7.32
2023-04-19T09:26:23.020Z,7.20
2023-04-19T09:29:26.997Z,6.93
2023-04-19T09:32:29.922Z,7.57
2023-04-19T09:35:41.690Z,8.50
2023-04-19T09:38:50.190Z,7.38
2023-04-19T09:41:53.555Z,7.30
2023-04-19T09:45:27.422Z,7.93
2023-04-19T09:48:23.332Z,8.38
2023-04-19T09:51:40.705Z,7.47
2023-04-19T09:54:42.684Z,7.35
2023-04-19T09:57:44.388Z,9.83
2023-04-19T10:00:49.935Z,10.30
2023-04-19T10:03:55.962Z,9.30
2023-04-19T10:07:28.462Z,9.70
2023-04-19T10:10:27.570Z,10.50
2023-04-19T10:13:43.480Z,11.63
2023-04-19T10:16:46.198Z,10.90
2023-04-19T10:19:48.270Z,11.27
2023-04-19T10:22:50.300Z,12.27
2023-04-19T10:25:57.598Z,11.35
2023-04-19T10:28:59.399Z,13.77
2023-04-19T10:32:05.381Z,12.30
2023-04-19T10:35:17.550Z,10.95
2023-04-19T10:38:21.258Z,10.63
2023-04-19T10:41:23.158Z,10.98
2023-04-19T10:44:24.895Z,10.17
2023-04-19T10:47:45.400Z,11.82
2023-04-19T10:51:20.446Z,10.48
2023-04-19T10:54:34.316Z,8.52
2023-04-19T10:58:03.857Z,9.75
2023-04-19T11:01:34.812Z,10.87
2023-04-19T11:04:36.692Z,12.05
2023-04-19T11:07:39.735Z,14.48
2023-04-19T11:10:42.085Z,14.63
2023-04-19T11:13:44.147Z,13.10
2023-04-19T11:16:46.612Z,16.13
2023-04-19T11:20:07.300Z,12.98
2023-04-19T11:23:17.503Z,14.02
2023-04-19T11:26:19.218Z,13.60
2023-04-19T11:29:21.877Z,12.48
2023-04-19T11:32:23.738Z,13.37
2023-04-19T11:35:28.721Z,10.88
2023-04-19T11:38:31.883Z,10.75
2023-04-19T11:41:40.107Z,12.70
2023-04-19T11:44:49.250Z,13.25
2023-04-19T11:47:51.541Z,15.80
2023-04-19T11:50:58.433Z,14.68
2023-04-19T11:54:00.418Z,14.68
2023-04-19T11:57:05.771Z,15.90
2023-04-19T12:00:12.113Z,14.68
2023-04-19T12:03:14.442Z,12.40
2023-04-19T12:06:18.868Z,14.48
2023-04-19T12:09:22.890Z,14.27
2023-04-19T12:12:32.658Z,13.80
2023-04-19T12:15:44.687Z,15.25
2023-04-19T12:18:51.106Z,13.27
2023-04-19T12:21:53.002Z,15.88
2023-04-19T12:24:55.918Z,13.13
2023-04-19T12:27:58.190Z,11.57
2023-04-19T12:30:59.845Z,15.65
2023-04-19T12:34:01.517Z,13.73
2023-04-19T12:37:06.305Z,12.93
2023-04-19T12:40:08.535Z,12.40
2023-04-19T12:43:10.297Z,13.70
2023-04-19T12:46:12.000Z,11.35
2023-04-19T12:49:13.902Z,10.93
2023-04-19T12:52:15.905Z,10.98
2023-04-19T12:55:17.677Z,11.55
2023-04-19T12:58:21.288Z,11.75
2023-04-19T13:01:23.633Z,9.77
2023-04-19T13:04:26.166Z,10.50
2023-04-19T13:07:28.651Z,9.73
2023-04-19T13:10:30.337Z,11.23
2023-04-19T13:13:32.109Z,10.55
2023-04-19T13:16:33.737Z,11.55
2023-04-19T13:19:35.449Z,12.63
2023-04-19T13:22:37.434Z,14.73
2023-04-19T13:25:39.104Z,13.40
2023-04-19T13:28:42.694Z,12.20
2023-04-19T13:31:44.620Z,13.05
2023-04-19T13:34:46.476Z,15.57
2023-04-19T13:37:48.159Z,14.35
2023-04-19T13:40:49.866Z,15.23
2023-04-19T13:43:51.627Z,17.67
2023-04-19T13:46:53.267Z,15.88
2023-04-19T13:49:54.982Z,15.27
2023-04-19T13:52:56.677Z,14.85
2023-04-19T13:55:58.414Z,14.30
2023-04-19T13:59:00.032Z,12.85
2023-04-19T14:02:03.952Z,13.55
2023-04-19T14:05:06.271Z,13.83
2023-04-19T14:08:07.888Z,12.95
2023-04-19T14:11:09.571Z,14.38
2023-04-19T14:14:11.444Z,12.90
2023-04-19T14:17:13.096Z,12.45
2023-04-19T14:20:15.134Z,13.10
2023-04-19T14:23:16.855Z,11.98
2023-04-19T14:26:18.522Z,11.65
2023-04-19T14:29:20.241Z,12.40
2023-04-19T14:32:26.608Z,12.07
2023-04-19T14:35:29.073Z,11.63
2023-04-19T14:38:30.822Z,10.77
2023-04-19T14:41:32.598Z,11.60
2023-04-19T14:44:34.239Z,11.43
2023-04-19T14:47:36.027Z,12.43
2023-04-19T14:50:39.033Z,11.83
2023-04-19T14:53:40.895Z,13.38
2023-04-19T14:56:42.544Z,11.45
2023-04-19T14:59:44.159Z,12.27
2023-04-19T15:02:45.959Z,11.40
2023-04-19T15:05:47.741Z,11.60
2023-04-19T15:08:49.388Z,9.85
2023-04-19T15:11:51.249Z,11.63
2023-04-19T15:14:52.845Z,11.48
2023-04-19T15:17:54.500Z,11.43
2023-04-19T15:20:56.339Z,11.50
2023-04-19T15:23:57.899Z,10.48
2023-04-19T15:26:59.609Z,10.88
2023-04-19T15:30:01.369Z,11.30
2023-04-19T15:33:03.095Z,10.35
2023-04-19T15:36:05.596Z,9.87
2023-04-19T15:39:07.690Z,8.75
2023-04-19T15:42:09.389Z,9.02
2023-04-19T15:45:11.301Z,7.80
2023-04-19T15:48:12.983Z,10.15
2023-04-19T15:51:15.429Z,8.17
2023-04-19T15:54:17.092Z,9.18
2023-04-19T15:57:18.903Z,9.32
2023-04-19T16:00:21.439Z,8.98
2023-04-19T16:03:23.258Z,8.02
2023-04-19T16:06:25.135Z,9.33
2023-04-19T16:09:26.904Z,9.48
2023-04-19T16:12:29.108Z,7.93
2023-04-19T16:15:31.045Z,7.75
2023-04-19T16:18:33.945Z,8.38
2023-04-19T16:21:35.624Z,9.17
2023-04-19T16:24:37.516Z,8.25
2023-04-19T16:27:42.419Z,8.02
2023-04-19T16:30:46.072Z,7.88
2023-04-19T16:33:47.653Z,7.03
2023-04-19T16:36:49.377Z,8.23
2023-04-19T16:39:51.153Z,8.48
2023-04-19T16:42:52.794Z,8.77
2023-04-19T16:45:54.826Z,8.13
2023-04-19T16:48:58.853Z,8.65
2023-04-19T16:52:00.488Z,7.30
2023-04-19T16:55:04.227Z,8.48
2023-04-19T16:58:06.091Z,8.80
2023-04-19T17:01:09.120Z,8.93
2023-04-19T17:04:11.547Z,8.35
2023-04-19T17:07:13.428Z,8.13
2023-04-19T17:10:15.051Z,8.52
2023-04-19T17:13:16.775Z,9.45
2023-04-19T17:16:18.527Z,9.45
2023-04-19T17:19:20.200Z,10.70
2023-04-19T17:22:21.956Z,9.73
2023-04-19T17:25:23.712Z,8.68
2023-04-19T17:28:25.437Z,9.02
2023-04-19T17:31:27.211Z,9.95
2023-04-19T17:34:28.901Z,11.65
2023-04-19T17:37:30.560Z,9.87
2023-04-19T17:40:32.212Z,9.93
2023-04-19T17:43:33.985Z,10.88
2023-04-19T17:46:35.628Z,12.02
2023-04-19T17:49:37.399Z,12.57
2023-04-19T17:52:39.670Z,12.67
2023-04-19T17:55:41.323Z,10.70
2023-04-19T17:58:42.886Z,10.73
2023-04-19T18:01:47.165Z,10.60
2023-04-19T18:04:49.158Z,10.93
2023-04-19T18:07:50.825Z,10.57
2023-04-19T18:10:52.493Z,11.35
2023-04-19T18:13:54.162Z,10.10
2023-04-19T18:16:55.949Z,9.77
2023-04-19T18:19:57.967Z,10.45
2023-04-19T18:23:01.741Z,9.60
2023-04-19T18:26:04.152Z,10.73
2023-04-19T18:29:06.059Z,10.07
2023-04-19T18:32:07.799Z,10.27
2023-04-19T18:35:10.719Z,9.38
2023-04-19T18:38:12.322Z,11.00
2023-04-19T18:41:13.902Z,12.20
2023-04-19T18:44:35.850Z,11.00
2023-04-19T18:47:37.395Z,10.88
2023-04-19T18:50:39.096Z,10.70
2023-04-19T18:53:41.072Z,10.97
2023-04-19T18:57:14.785Z,10.63
2023-04-19T19:00:10.998Z,9.93
2023-04-19T19:03:40.002Z,10.00
2023-04-19T19:06:34.692Z,10.18
2023-04-19T19:09:36.845Z,10.93
2023-04-19T19:12:39.645Z,9.80
2023-04-19T19:15:41.703Z,9.85
2023-04-19T19:18:43.342Z,11.90
2023-04-19T19:21:44.974Z,10.00
2023-04-19T19:24:46.820Z,11.23
2023-04-19T19:28:02.973Z,11.20
2023-04-19T19:31:08.878Z,11.55
2023-04-19T19:34:24.173Z,12.48
2023-04-19T19:37:27.486Z,11.38
2023-04-19T19:40:31.442Z,10.77
2023-04-19T19:43:34.898Z,11.88
2023-04-19T19:46:38.418Z,12.07
2023-04-19T19:50:02.022Z,11.88
2023-04-19T19:53:01.796Z,10.90
2023-04-19T19:56:04.288Z,12.10
2023-04-19T19:59:06.593Z,11.85
2023-04-19T20:02:08.457Z,13.15
2023-04-19T20:05:11.301Z,13.68
2023-04-19T20:08:14.444Z,10.77
2023-04-19T20:11:16.346Z,11.07
2023-04-19T20:14:17.980Z,12.15
2023-04-19T20:17:19.576Z,12.43
2023-04-19T20:20:21.498Z,12.27
2023-04-19T20:23:23.095Z,13.07
2023-04-19T20:26:24.666Z,12.40
2023-04-19T20:29:26.262Z,13.82
2023-04-19T20:32:28.016Z,14.60
2023-04-19T20:35:30.364Z,12.07
2023-04-19T20:38:32.112Z,13.77
2023-04-19T20:41:33.721Z,18.57
2023-04-19T20:44:35.437Z,14.57
2023-04-19T20:47:38.435Z,12.85
2023-04-19T20:50:42.042Z,14.20
2023-04-19T20:53:43.690Z,13.00
2023-04-19T20:56:46.941Z,14.93
2023-04-19T20:59:49.188Z,13.75
2023-04-19T21:02:50.959Z,14.82
2023-04-19T21:05:52.670Z,14.45
2023-04-19T21:08:54.427Z,16.02
2023-04-19T21:11:56.058Z,13.83
2023-04-19T21:14:57.673Z,15.90
2023-04-19T21:17:59.434Z,17.73
2023-04-19T21:21:01.053Z,13.80
2023-04-19T21:24:02.685Z,12.68
2023-04-19T21:27:04.562Z,14.67
2023-04-19T21:30:07.157Z,13.20
2023-04-19T21:33:09.820Z,13.77
2023-04-19T21:36:11.733Z,13.25
2023-04-19T21:39:13.332Z,13.73
2023-04-19T21:42:15.031Z,13.37
2023-04-19T21:45:16.782Z,12.80
2023-04-19T21:48:18.383Z,13.38
2023-04-19T21:51:20.003Z,12.52
2023-04-19T21:54:32.869Z,13.38
2023-04-19T21:57:35.452Z,13.73
2023-04-19T22:00:37.096Z,11.80
2023-04-19T22:03:39.536Z,13.38
2023-04-19T22:06:41.651Z,11.68
2023-04-19T22:09:43.414Z,13.45
2023-04-19T22:12:57.393Z,12.07
2023-04-19T22:16:02.267Z,12.20
2023-04-19T22:19:05.268Z,12.32
2023-04-19T22:22:06.925Z,12.23
2023-04-19T22:25:09.039Z,10.60
2023-04-19T22:28:10.930Z,11.27
2023-04-19T22:31:12.600Z,12.70
2023-04-19T22:34:14.226Z,14.32
2023-04-19T22:37:15.953Z,12.48
2023-04-19T22:40:17.571Z,12.43
2023-04-19T22:43:19.327Z,13.97
2023-04-19T22:46:21.502Z,12.43
2023-04-19T22:49:24.086Z,12.32
2023-04-19T22:52:25.882Z,12.70
2023-04-19T22:55:27.475Z,11.05
2023-04-19T22:58:29.133Z,12.43
2023-04-19T23:01:31.036Z,12.25
2023-04-19T23:04:35.909Z,14.02
2023-04-19T23:07:40.014Z,11.60
2023-04-19T23:10:42.425Z,11.35
2023-04-19T23:13:44.411Z,13.27
2023-04-19T23:16:46.241Z,12.90
2023-04-19T23:19:47.863Z,13.85
2023-04-19T23:22:49.508Z,12.25
2023-04-19T23:25:51.180Z,11.18
2023-04-19T23:28:52.784Z,11.27
2023-04-19T23:31:54.526Z,13.35
2023-04-19T23:34:56.403Z,13.82
2023-04-19T23:37:57.988Z,16.73
2023-04-19T23:40:59.844Z,16.58
2023-04-19T23:44:01.473Z,15.07
2023-04-19T23:47:03.789Z,14.77
2023-04-19T23:50:06.202Z,14.10
2023-04-19T23:53:07.933Z,15.57
2023-04-19T23:56:09.630Z,15.57
2023-04-19T23:59:11.373Z,14.83
